sensor_id;sensor_type;location;lat;lon;timestamp;temperature;humidity
53146;DHT22;39042;53.150;5.898;2023-12-20T00:01:07;6.40;99.90
53146;DHT22;39042;53.150;5.898;2023-12-20T00:03:33;6.40;99.90
53146;DHT22;39042;53.150;5.898;2023-12-20T00:05:59;6.40;99.90
53146;DHT22;39042;53.150;5.898;2023-12-20T00:08:24;6.30;99.90
53146;DHT22;39042;53.150;5.898;2023-12-20T00:10:50;6.30;99.90
53146;DHT22;39042;53.150;5.898;2023-12-20T00:13:16;6.20;99.90
53146;DHT22;39042;53.150;5.898;2023-12-20T00:15:42;6.10;99.90
53146;DHT22;39042;53.150;5.898;2023-12-20T00:18:08;6.00;99.90
53146;DHT22;39042;53.150;5.898;2023-12-20T00:20:33;5.90;99.90
53146;DHT22;39042;53.150;5.898;2023-12-20T00:22:59;5.90;99.90
53146;DHT22;39042;53.150;5.898;2023-12-20T00:25:25;5.80;99.90
53146;DHT22;39042;53.150;5.898;2023-12-20T00:27:51;5.80;99.90
53146;DHT22;39042;53.150;5.898;2023-12-20T00:30:17;5.80;99.90
53146;DHT22;39042;53.150;5.898;2023-12-20T00:32:43;5.80;99.90
53146;DHT22;39042;53.150;5.898;2023-12-20T00:35:15;5.80;99.90
53146;DHT22;39042;53.150;5.898;2023-12-20T00:37:42;5.80;99.90
53146;DHT22;39042;53.150;5.898;2023-12-20T00:40:09;5.90;99.90
53146;DHT22;39042;53.150;5.898;2023-12-20T00:42:35;5.90;99.90
53146;DHT22;39042;53.150;5.898;2023-12-20T00:45:04;6.00;99.90
53146;DHT22;39042;53.150;5.898;2023-12-20T00:47:31;6.00;99.90
53146;DHT22;39042;53.150;5.898;2023-12-20T00:49:57;6.00;99.90
53146;DHT22;39042;53.150;5.898;2023-12-20T00:52:23;6.10;99.90
53146;DHT22;39042;53.150;5.898;2023-12-20T00:54:49;6.10;99.90
53146;DHT22;39042;53.150;5.898;2023-12-20T00:57:15;6.10;99.90
53146;DHT22;39042;53.150;5.898;2023-12-20T00:59:41;6.10;99.90
53146;DHT22;39042;53.150;5.898;2023-12-20T01:02:07;6.10;99.90
53146;DHT22;39042;53.150;5.898;2023-12-20T01:04:33;6.20;99.90
53146;DHT22;39042;53.150;5.898;2023-12-20T01:06:59;6.20;99.90
53146;DHT22;39042;53.150;5.898;2023-12-20T01:09:24;6.20;99.90
53146;DHT22;39042;53.150;5.898;2023-12-20T01:11:52;6.20;99.90
53146;DHT22;39042;53.150;5.898;2023-12-20T01:14:18;6.30;99.90
53146;DHT22;39042;53.150;5.898;2023-12-20T01:16:44;6.30;99.90
53146;DHT22;39042;53.150;5.898;2023-12-20T01:19:10;6.30;99.90
53146;DHT22;39042;53.150;5.898;2023-12-20T01:21:36;6.40;99.90
53146;DHT22;39042;53.150;5.898;2023-12-20T01:24:02;6.40;99.90
53146;DHT22;39042;53.150;5.898;2023-12-20T01:26:28;6.40;99.90
53146;DHT22;39042;53.150;5.898;2023-12-20T01:28:54;6.50;99.90
53146;DHT22;39042;53.150;5.898;2023-12-20T01:31:19;6.50;99.90
53146;DHT22;39042;53.150;5.898;2023-12-20T01:33:45;6.60;99.90
53146;DHT22;39042;53.150;5.898;2023-12-20T01:36:11;6.70;99.90
53146;DHT22;39042;53.150;5.898;2023-12-20T01:38:37;6.70;99.90
53146;DHT22;39042;53.150;5.898;2023-12-20T01:41:03;6.90;99.90
53146;DHT22;39042;53.150;5.898;2023-12-20T01:43:30;6.90;99.90
53146;DHT22;39042;53.150;5.898;2023-12-20T01:45:57;6.90;99.90
53146;DHT22;39042;53.150;5.898;2023-12-20T01:48:24;6.90;99.90
53146;DHT22;39042;53.150;5.898;2023-12-20T01:50:51;7.00;99.90
53146;DHT22;39042;53.150;5.898;2023-12-20T01:53:20;7.00;99.90
53146;DHT22;39042;53.150;5.898;2023-12-20T01:55:48;7.00;99.90
53146;DHT22;39042;53.150;5.898;2023-12-20T01:58:16;7.10;99.90
53146;DHT22;39042;53.150;5.898;2023-12-20T02:00:42;7.10;99.90
53146;DHT22;39042;53.150;5.898;2023-12-20T02:03:08;7.20;99.90
53146;DHT22;39042;53.150;5.898;2023-12-20T02:05:35;7.20;99.90
53146;DHT22;39042;53.150;5.898;2023-12-20T02:08:02;7.20;99.90
53146;DHT22;39042;53.150;5.898;2023-12-20T02:10:28;7.20;99.90
53146;DHT22;39042;53.150;5.898;2023-12-20T02:12:54;7.20;99.90
53146;DHT22;39042;53.150;5.898;2023-12-20T02:15:20;7.20;99.90
53146;DHT22;39042;53.150;5.898;2023-12-20T02:17:47;7.30;99.90
53146;DHT22;39042;53.150;5.898;2023-12-20T02:20:14;7.30;99.90
53146;DHT22;39042;53.150;5.898;2023-12-20T02:22:40;7.30;99.90
53146;DHT22;39042;53.150;5.898;2023-12-20T02:25:06;7.30;99.90
53146;DHT22;39042;53.150;5.898;2023-12-20T02:27:32;7.30;99.90
53146;DHT22;39042;53.150;5.898;2023-12-20T02:29:58;7.30;99.90
53146;DHT22;39042;53.150;5.898;2023-12-20T02:32:24;7.30;99.90
53146;DHT22;39042;53.150;5.898;2023-12-20T02:34:54;7.30;99.90
53146;DHT22;39042;53.150;5.898;2023-12-20T02:37:20;7.30;99.90
53146;DHT22;39042;53.150;5.898;2023-12-20T02:39:46;7.30;99.90
53146;DHT22;39042;53.150;5.898;2023-12-20T02:42:12;7.30;99.90
53146;DHT22;39042;53.150;5.898;2023-12-20T02:44:38;7.30;99.90
53146;DHT22;39042;53.150;5.898;2023-12-20T02:47:04;7.20;99.90
53146;DHT22;39042;53.150;5.898;2023-12-20T02:49:30;7.20;99.90
53146;DHT22;39042;53.150;5.898;2023-12-20T02:51:55;7.20;99.90
53146;DHT22;39042;53.150;5.898;2023-12-20T02:54:21;7.20;99.90
53146;DHT22;39042;53.150;5.898;2023-12-20T02:56:47;7.20;99.90
53146;DHT22;39042;53.150;5.898;2023-12-20T02:59:13;7.20;99.90
53146;DHT22;39042;53.150;5.898;2023-12-20T03:01:45;7.20;99.90
53146;DHT22;39042;53.150;5.898;2023-12-20T03:04:11;7.20;99.90
53146;DHT22;39042;53.150;5.898;2023-12-20T03:06:38;7.20;99.90
53146;DHT22;39042;53.150;5.898;2023-12-20T03:09:04;7.20;99.90
53146;DHT22;39042;53.150;5.898;2023-12-20T03:11:30;7.20;99.90
53146;DHT22;39042;53.150;5.898;2023-12-20T03:13:56;7.20;99.90
53146;DHT22;39042;53.150;5.898;2023-12-20T03:16:22;7.20;99.90
53146;DHT22;39042;53.150;5.898;2023-12-20T03:18:48;7.30;99.90
53146;DHT22;39042;53.150;5.898;2023-12-20T03:21:14;7.20;99.90
53146;DHT22;39042;53.150;5.898;2023-12-20T03:23:40;7.30;99.90
53146;DHT22;39042;53.150;5.898;2023-12-20T03:26:09;7.40;99.90
53146;DHT22;39042;53.150;5.898;2023-12-20T03:28:36;7.30;99.90
53146;DHT22;39042;53.150;5.898;2023-12-20T03:31:02;7.40;99.90
53146;DHT22;39042;53.150;5.898;2023-12-20T03:33:29;7.40;99.90
53146;DHT22;39042;53.150;5.898;2023-12-20T03:35:55;7.50;99.90
53146;DHT22;39042;53.150;5.898;2023-12-20T03:38:21;7.40;99.90
53146;DHT22;39042;53.150;5.898;2023-12-20T03:40:47;7.40;99.90
53146;DHT22;39042;53.150;5.898;2023-12-20T03:43:13;7.50;99.90
53146;DHT22;39042;53.150;5.898;2023-12-20T03:45:38;7.50;99.90
53146;DHT22;39042;53.150;5.898;2023-12-20T03:48:05;7.50;99.90
53146;DHT22;39042;53.150;5.898;2023-12-20T03:50:31;7.50;99.90
53146;DHT22;39042;53.150;5.898;2023-12-20T03:52:57;7.50;99.90
53146;DHT22;39042;53.150;5.898;2023-12-20T03:55:22;7.50;99.90
53146;DHT22;39042;53.150;5.898;2023-12-20T03:57:48;7.50;99.90
53146;DHT22;39042;53.150;5.898;2023-12-20T04:00:14;7.50;99.90
53146;DHT22;39042;53.150;5.898;2023-12-20T04:02:41;7.50;99.90
53146;DHT22;39042;53.150;5.898;2023-12-20T04:05:08;7.60;99.90
53146;DHT22;39042;53.150;5.898;2023-12-20T04:07:35;7.50;99.90
53146;DHT22;39042;53.150;5.898;2023-12-20T04:10:01;7.60;99.90
53146;DHT22;39042;53.150;5.898;2023-12-20T04:12:28;7.60;99.90
53146;DHT22;39042;53.150;5.898;2023-12-20T04:14:54;7.60;99.90
53146;DHT22;39042;53.150;5.898;2023-12-20T04:17:20;7.60;99.90
53146;DHT22;39042;53.150;5.898;2023-12-20T04:19:48;7.60;99.90
53146;DHT22;39042;53.150;5.898;2023-12-20T04:22:14;7.60;99.90
53146;DHT22;39042;53.150;5.898;2023-12-20T04:24:40;7.60;99.90
53146;DHT22;39042;53.150;5.898;2023-12-20T04:27:08;7.60;99.90
53146;DHT22;39042;53.150;5.898;2023-12-20T04:29:34;7.60;99.90
53146;DHT22;39042;53.150;5.898;2023-12-20T04:32:00;7.60;99.90
53146;DHT22;39042;53.150;5.898;2023-12-20T04:34:26;7.60;99.90
53146;DHT22;39042;53.150;5.898;2023-12-20T04:36:52;7.60;99.90
53146;DHT22;39042;53.150;5.898;2023-12-20T04:39:18;7.60;99.90
53146;DHT22;39042;53.150;5.898;2023-12-20T04:41:43;7.60;99.90
53146;DHT22;39042;53.150;5.898;2023-12-20T04:44:09;7.70;99.90
53146;DHT22;39042;53.150;5.898;2023-12-20T04:46:35;7.70;99.90
53146;DHT22;39042;53.150;5.898;2023-12-20T04:49:01;7.70;99.90
53146;DHT22;39042;53.150;5.898;2023-12-20T04:51:27;7.70;99.90
53146;DHT22;39042;53.150;5.898;2023-12-20T04:53:53;7.70;99.90
53146;DHT22;39042;53.150;5.898;2023-12-20T04:56:19;7.70;99.90
53146;DHT22;39042;53.150;5.898;2023-12-20T04:58:45;7.60;99.90
53146;DHT22;39042;53.150;5.898;2023-12-20T05:01:10;7.70;99.90
53146;DHT22;39042;53.150;5.898;2023-12-20T05:03:37;7.70;99.90
53146;DHT22;39042;53.150;5.898;2023-12-20T05:06:03;7.70;99.90
53146;DHT22;39042;53.150;5.898;2023-12-20T05:08:29;7.70;99.90
53146;DHT22;39042;53.150;5.898;2023-12-20T05:10:55;7.70;99.90
53146;DHT22;39042;53.150;5.898;2023-12-20T05:13:21;7.80;99.90
53146;DHT22;39042;53.150;5.898;2023-12-20T05:15:47;7.80;99.90
53146;DHT22;39042;53.150;5.898;2023-12-20T05:18:13;7.80;99.90
53146;DHT22;39042;53.150;5.898;2023-12-20T05:20:39;7.80;99.90
53146;DHT22;39042;53.150;5.898;2023-12-20T05:23:05;7.90;99.90
53146;DHT22;39042;53.150;5.898;2023-12-20T05:25:31;7.90;99.90
53146;DHT22;39042;53.150;5.898;2023-12-20T05:27:57;7.90;99.90
53146;DHT22;39042;53.150;5.898;2023-12-20T05:30:23;7.90;99.90
53146;DHT22;39042;53.150;5.898;2023-12-20T05:32:49;7.90;99.90
53146;DHT22;39042;53.150;5.898;2023-12-20T05:35:15;7.90;99.90
53146;DHT22;39042;53.150;5.898;2023-12-20T05:37:41;7.90;99.90
53146;DHT22;39042;53.150;5.898;2023-12-20T05:40:07;7.90;99.90
53146;DHT22;39042;53.150;5.898;2023-12-20T05:42:37;7.90;99.90
53146;DHT22;39042;53.150;5.898;2023-12-20T05:45:04;8.00;99.90
53146;DHT22;39042;53.150;5.898;2023-12-20T05:47:30;8.00;99.90
53146;DHT22;39042;53.150;5.898;2023-12-20T05:49:56;8.00;99.90
53146;DHT22;39042;53.150;5.898;2023-12-20T05:52:21;8.00;99.90
53146;DHT22;39042;53.150;5.898;2023-12-20T05:54:47;8.00;99.90
53146;DHT22;39042;53.150;5.898;2023-12-20T05:57:13;8.00;99.90
53146;DHT22;39042;53.150;5.898;2023-12-20T05:59:39;8.10;99.90
53146;DHT22;39042;53.150;5.898;2023-12-20T06:02:05;8.10;99.90
53146;DHT22;39042;53.150;5.898;2023-12-20T06:04:31;8.10;99.90
53146;DHT22;39042;53.150;5.898;2023-12-20T06:06:57;8.10;99.90
53146;DHT22;39042;53.150;5.898;2023-12-20T06:09:23;8.10;99.90
53146;DHT22;39042;53.150;5.898;2023-12-20T06:11:49;8.10;99.90
53146;DHT22;39042;53.150;5.898;2023-12-20T06:14:15;8.10;99.90
53146;DHT22;39042;53.150;5.898;2023-12-20T06:16:41;8.10;99.90
53146;DHT22;39042;53.150;5.898;2023-12-20T06:19:07;8.20;99.90
53146;DHT22;39042;53.150;5.898;2023-12-20T06:21:32;8.20;99.90
53146;DHT22;39042;53.150;5.898;2023-12-20T06:23:59;8.20;99.90
53146;DHT22;39042;53.150;5.898;2023-12-20T06:26:25;8.20;99.90
53146;DHT22;39042;53.150;5.898;2023-12-20T06:28:51;8.20;99.90
53146;DHT22;39042;53.150;5.898;2023-12-20T06:31:17;8.20;99.90
53146;DHT22;39042;53.150;5.898;2023-12-20T06:33:43;8.20;99.90
53146;DHT22;39042;53.150;5.898;2023-12-20T06:36:13;8.20;99.90
53146;DHT22;39042;53.150;5.898;2023-12-20T06:38:39;8.20;99.90
53146;DHT22;39042;53.150;5.898;2023-12-20T06:41:05;8.20;99.90
53146;DHT22;39042;53.150;5.898;2023-12-20T06:43:31;8.20;99.90
53146;DHT22;39042;53.150;5.898;2023-12-20T06:45:58;8.20;99.90
53146;DHT22;39042;53.150;5.898;2023-12-20T06:48:25;8.30;99.90
53146;DHT22;39042;53.150;5.898;2023-12-20T06:50:51;8.20;99.90
53146;DHT22;39042;53.150;5.898;2023-12-20T06:53:17;8.20;99.90
53146;DHT22;39042;53.150;5.898;2023-12-20T06:55:43;8.20;99.90
53146;DHT22;39042;53.150;5.898;2023-12-20T06:58:09;8.20;99.90
53146;DHT22;39042;53.150;5.898;2023-12-20T07:00:34;8.20;99.90
53146;DHT22;39042;53.150;5.898;2023-12-20T07:03:00;8.30;99.90
53146;DHT22;39042;53.150;5.898;2023-12-20T07:05:26;8.30;99.90
53146;DHT22;39042;53.150;5.898;2023-12-20T07:07:52;8.30;99.90
53146;DHT22;39042;53.150;5.898;2023-12-20T07:10:18;8.30;99.90
53146;DHT22;39042;53.150;5.898;2023-12-20T07:12:44;8.30;99.90
53146;DHT22;39042;53.150;5.898;2023-12-20T07:15:10;8.30;99.90
53146;DHT22;39042;53.150;5.898;2023-12-20T07:17:37;8.20;99.90
53146;DHT22;39042;53.150;5.898;2023-12-20T07:20:03;8.20;99.90
53146;DHT22;39042;53.150;5.898;2023-12-20T07:22:33;8.10;99.90
53146;DHT22;39042;53.150;5.898;2023-12-20T07:24:59;8.10;99.90
53146;DHT22;39042;53.150;5.898;2023-12-20T07:27:26;8.10;99.90
53146;DHT22;39042;53.150;5.898;2023-12-20T07:29:52;8.10;99.90
53146;DHT22;39042;53.150;5.898;2023-12-20T07:32:18;8.10;99.90
53146;DHT22;39042;53.150;5.898;2023-12-20T07:34:44;8.10;99.90
53146;DHT22;39042;53.150;5.898;2023-12-20T07:37:10;8.10;99.90
53146;DHT22;39042;53.150;5.898;2023-12-20T07:39:40;8.10;99.90
53146;DHT22;39042;53.150;5.898;2023-12-20T07:42:07;8.20;99.90
53146;DHT22;39042;53.150;5.898;2023-12-20T07:44:33;8.20;99.90
53146;DHT22;39042;53.150;5.898;2023-12-20T07:47:01;8.20;99.90
53146;DHT22;39042;53.150;5.898;2023-12-20T07:49:27;8.20;99.90
53146;DHT22;39042;53.150;5.898;2023-12-20T07:51:53;8.20;99.90
53146;DHT22;39042;53.150;5.898;2023-12-20T07:54:19;8.30;99.90
53146;DHT22;39042;53.150;5.898;2023-12-20T07:56:46;8.30;99.90
53146;DHT22;39042;53.150;5.898;2023-12-20T07:59:12;8.30;99.90
53146;DHT22;39042;53.150;5.898;2023-12-20T08:01:38;8.20;99.90
53146;DHT22;39042;53.150;5.898;2023-12-20T08:04:04;8.10;99.90
53146;DHT22;39042;53.150;5.898;2023-12-20T08:06:30;7.80;99.90
53146;DHT22;39042;53.150;5.898;2023-12-20T08:08:56;7.60;99.90
53146;DHT22;39042;53.150;5.898;2023-12-20T08:11:22;7.40;99.90
53146;DHT22;39042;53.150;5.898;2023-12-20T08:13:48;7.40;99.90
53146;DHT22;39042;53.150;5.898;2023-12-20T08:16:14;7.40;99.90
53146;DHT22;39042;53.150;5.898;2023-12-20T08:18:41;7.50;99.90
53146;DHT22;39042;53.150;5.898;2023-12-20T08:21:07;7.60;99.90
53146;DHT22;39042;53.150;5.898;2023-12-20T08:23:34;7.60;99.90
53146;DHT22;39042;53.150;5.898;2023-12-20T08:26:07;7.60;99.90
53146;DHT22;39042;53.150;5.898;2023-12-20T08:28:33;7.70;99.90
53146;DHT22;39042;53.150;5.898;2023-12-20T08:31:00;7.80;99.90
53146;DHT22;39042;53.150;5.898;2023-12-20T08:33:26;7.80;99.90
53146;DHT22;39042;53.150;5.898;2023-12-20T08:35:52;7.80;99.90
53146;DHT22;39042;53.150;5.898;2023-12-20T08:38:18;7.90;99.90
53146;DHT22;39042;53.150;5.898;2023-12-20T08:40:44;8.00;99.90
53146;DHT22;39042;53.150;5.898;2023-12-20T08:43:10;8.00;99.90
53146;DHT22;39042;53.150;5.898;2023-12-20T08:45:36;8.10;99.90
53146;DHT22;39042;53.150;5.898;2023-12-20T08:48:02;8.20;99.90
53146;DHT22;39042;53.150;5.898;2023-12-20T08:50:29;8.10;99.90
53146;DHT22;39042;53.150;5.898;2023-12-20T08:52:55;8.10;99.90
53146;DHT22;39042;53.150;5.898;2023-12-20T08:55:23;8.20;99.90
53146;DHT22;39042;53.150;5.898;2023-12-20T08:57:48;8.20;99.90
53146;DHT22;39042;53.150;5.898;2023-12-20T09:00:15;8.20;99.90
53146;DHT22;39042;53.150;5.898;2023-12-20T09:02:41;8.30;99.90
53146;DHT22;39042;53.150;5.898;2023-12-20T09:05:07;8.20;99.90
53146;DHT22;39042;53.150;5.898;2023-12-20T09:07:33;7.80;99.90
53146;DHT22;39042;53.150;5.898;2023-12-20T09:09:59;7.50;99.90
53146;DHT22;39042;53.150;5.898;2023-12-20T09:12:25;7.30;99.90
53146;DHT22;39042;53.150;5.898;2023-12-20T09:14:53;7.10;99.90
53146;DHT22;39042;53.150;5.898;2023-12-20T09:17:19;7.00;99.90
53146;DHT22;39042;53.150;5.898;2023-12-20T09:19:46;6.90;99.90
53146;DHT22;39042;53.150;5.898;2023-12-20T09:22:12;6.80;99.90
53146;DHT22;39042;53.150;5.898;2023-12-20T09:24:38;6.80;99.90
53146;DHT22;39042;53.150;5.898;2023-12-20T09:27:05;6.70;99.90
53146;DHT22;39042;53.150;5.898;2023-12-20T09:29:31;6.60;99.90
53146;DHT22;39042;53.150;5.898;2023-12-20T09:31:57;6.60;99.90
53146;DHT22;39042;53.150;5.898;2023-12-20T09:34:23;6.60;99.90
53146;DHT22;39042;53.150;5.898;2023-12-20T09:36:49;6.50;99.90
53146;DHT22;39042;53.150;5.898;2023-12-20T09:39:18;6.50;99.90
53146;DHT22;39042;53.150;5.898;2023-12-20T09:42:03;6.40;99.90
53146;DHT22;39042;53.150;5.898;2023-12-20T09:44:30;6.40;99.90
53146;DHT22;39042;53.150;5.898;2023-12-20T09:46:57;6.50;99.90
53146;DHT22;39042;53.150;5.898;2023-12-20T09:49:23;6.50;99.90
53146;DHT22;39042;53.150;5.898;2023-12-20T09:51:51;6.60;99.90
53146;DHT22;39042;53.150;5.898;2023-12-20T09:54:18;6.60;99.90
53146;DHT22;39042;53.150;5.898;2023-12-20T09:56:44;6.60;99.90
53146;DHT22;39042;53.150;5.898;2023-12-20T09:59:10;6.60;99.90
53146;DHT22;39042;53.150;5.898;2023-12-20T10:01:39;6.70;99.90
53146;DHT22;39042;53.150;5.898;2023-12-20T10:04:06;6.60;99.90
53146;DHT22;39042;53.150;5.898;2023-12-20T10:06:41;6.60;99.90
53146;DHT22;39042;53.150;5.898;2023-12-20T10:09:07;6.50;99.90
53146;DHT22;39042;53.150;5.898;2023-12-20T10:11:38;6.50;99.90
53146;DHT22;39042;53.150;5.898;2023-12-20T10:14:05;6.60;99.90
53146;DHT22;39042;53.150;5.898;2023-12-20T10:16:32;6.60;99.90
53146;DHT22;39042;53.150;5.898;2023-12-20T10:18:58;6.70;99.90
53146;DHT22;39042;53.150;5.898;2023-12-20T10:21:25;6.80;99.90
53146;DHT22;39042;53.150;5.898;2023-12-20T10:23:58;6.90;99.90
53146;DHT22;39042;53.150;5.898;2023-12-20T10:26:25;6.90;99.90
53146;DHT22;39042;53.150;5.898;2023-12-20T10:28:53;7.00;99.90
53146;DHT22;39042;53.150;5.898;2023-12-20T10:31:49;7.00;99.90
53146;DHT22;39042;53.150;5.898;2023-12-20T10:34:15;7.00;99.90
53146;DHT22;39042;53.150;5.898;2023-12-20T10:36:41;7.10;99.90
53146;DHT22;39042;53.150;5.898;2023-12-20T10:39:08;7.20;99.90
53146;DHT22;39042;53.150;5.898;2023-12-20T10:41:35;7.30;99.90
53146;DHT22;39042;53.150;5.898;2023-12-20T10:44:07;7.30;99.90
53146;DHT22;39042;53.150;5.898;2023-12-20T10:46:34;7.30;99.90
53146;DHT22;39042;53.150;5.898;2023-12-20T10:49:02;7.40;99.90
53146;DHT22;39042;53.150;5.898;2023-12-20T10:51:28;7.40;99.90
53146;DHT22;39042;53.150;5.898;2023-12-20T10:53:56;7.50;99.90
53146;DHT22;39042;53.150;5.898;2023-12-20T10:56:22;7.50;99.90
53146;DHT22;39042;53.150;5.898;2023-12-20T10:58:49;7.60;99.90
53146;DHT22;39042;53.150;5.898;2023-12-20T11:01:19;7.60;99.90
53146;DHT22;39042;53.150;5.898;2023-12-20T11:03:50;7.60;99.90
53146;DHT22;39042;53.150;5.898;2023-12-20T11:12:13;7.70;99.90
53146;DHT22;39042;53.150;5.898;2023-12-20T11:14:54;7.80;99.90
53146;DHT22;39042;53.150;5.898;2023-12-20T11:17:23;7.80;99.90
53146;DHT22;39042;53.150;5.898;2023-12-20T11:22:20;7.90;99.90
53146;DHT22;39042;53.150;5.898;2023-12-20T11:24:47;7.90;99.90
53146;DHT22;39042;53.150;5.898;2023-12-20T11:27:14;8.00;99.90
53146;DHT22;39042;53.150;5.898;2023-12-20T11:29:41;8.00;99.90
53146;DHT22;39042;53.150;5.898;2023-12-20T11:34:58;8.10;99.90
53146;DHT22;39042;53.150;5.898;2023-12-20T11:37:31;8.10;99.90
53146;DHT22;39042;53.150;5.898;2023-12-20T11:40:02;8.20;99.90
53146;DHT22;39042;53.150;5.898;2023-12-20T11:42:33;8.20;99.90
53146;DHT22;39042;53.150;5.898;2023-12-20T11:45:02;8.20;99.90
53146;DHT22;39042;53.150;5.898;2023-12-20T11:47:30;8.20;99.90
53146;DHT22;39042;53.150;5.898;2023-12-20T11:49:56;8.20;99.90
53146;DHT22;39042;53.150;5.898;2023-12-20T11:52:22;8.20;99.90
53146;DHT22;39042;53.150;5.898;2023-12-20T11:54:48;8.20;99.90
53146;DHT22;39042;53.150;5.898;2023-12-20T11:57:14;8.20;99.90
53146;DHT22;39042;53.150;5.898;2023-12-20T11:59:40;8.30;99.90
53146;DHT22;39042;53.150;5.898;2023-12-20T12:02:06;8.30;99.90
53146;DHT22;39042;53.150;5.898;2023-12-20T12:04:32;8.20;99.90
53146;DHT22;39042;53.150;5.898;2023-12-20T12:06:57;8.20;99.90
53146;DHT22;39042;53.150;5.898;2023-12-20T12:09:23;8.20;99.90
53146;DHT22;39042;53.150;5.898;2023-12-20T12:11:49;8.20;99.90
53146;DHT22;39042;53.150;5.898;2023-12-20T12:14:15;8.20;99.90
53146;DHT22;39042;53.150;5.898;2023-12-20T12:16:44;8.20;99.90
53146;DHT22;39042;53.150;5.898;2023-12-20T12:19:24;8.10;99.90
53146;DHT22;39042;53.150;5.898;2023-12-20T12:21:51;8.10;99.90
53146;DHT22;39042;53.150;5.898;2023-12-20T12:24:19;8.10;99.90
53146;DHT22;39042;53.150;5.898;2023-12-20T12:26:50;8.00;99.90
53146;DHT22;39042;53.150;5.898;2023-12-20T12:29:17;8.00;99.90
53146;DHT22;39042;53.150;5.898;2023-12-20T12:31:42;8.00;99.90
53146;DHT22;39042;53.150;5.898;2023-12-20T12:34:08;7.90;99.90
53146;DHT22;39042;53.150;5.898;2023-12-20T12:36:35;7.80;99.90
53146;DHT22;39042;53.150;5.898;2023-12-20T12:39:03;7.80;99.90
53146;DHT22;39042;53.150;5.898;2023-12-20T12:41:30;7.70;99.90
53146;DHT22;39042;53.150;5.898;2023-12-20T12:43:56;7.60;99.90
53146;DHT22;39042;53.150;5.898;2023-12-20T12:46:22;7.60;99.90
53146;DHT22;39042;53.150;5.898;2023-12-20T12:48:47;7.50;99.90
53146;DHT22;39042;53.150;5.898;2023-12-20T12:51:14;7.50;99.90
53146;DHT22;39042;53.150;5.898;2023-12-20T12:53:40;7.40;99.90
53146;DHT22;39042;53.150;5.898;2023-12-20T12:56:07;7.30;99.90
53146;DHT22;39042;53.150;5.898;2023-12-20T12:58:33;7.30;99.90
53146;DHT22;39042;53.150;5.898;2023-12-20T13:00:59;7.30;99.90
53146;DHT22;39042;53.150;5.898;2023-12-20T13:03:25;7.20;99.90
53146;DHT22;39042;53.150;5.898;2023-12-20T13:05:51;7.20;99.90
53146;DHT22;39042;53.150;5.898;2023-12-20T13:08:17;7.20;99.90
53146;DHT22;39042;53.150;5.898;2023-12-20T13:10:43;7.10;99.90
53146;DHT22;39042;53.150;5.898;2023-12-20T13:13:09;7.10;99.90
53146;DHT22;39042;53.150;5.898;2023-12-20T13:15:35;7.10;99.90
53146;DHT22;39042;53.150;5.898;2023-12-20T13:18:00;7.00;99.90
53146;DHT22;39042;53.150;5.898;2023-12-20T13:20:26;7.00;99.90
53146;DHT22;39042;53.150;5.898;2023-12-20T13:22:52;7.00;99.90
53146;DHT22;39042;53.150;5.898;2023-12-20T13:25:18;7.00;99.90
53146;DHT22;39042;53.150;5.898;2023-12-20T13:27:44;7.00;99.90
53146;DHT22;39042;53.150;5.898;2023-12-20T13:30:10;7.00;99.90
53146;DHT22;39042;53.150;5.898;2023-12-20T13:32:36;7.00;99.90
53146;DHT22;39042;53.150;5.898;2023-12-20T13:35:01;7.00;99.90
53146;DHT22;39042;53.150;5.898;2023-12-20T13:37:27;7.00;99.90
53146;DHT22;39042;53.150;5.898;2023-12-20T13:39:53;7.00;99.90
53146;DHT22;39042;53.150;5.898;2023-12-20T13:42:19;6.90;99.90
53146;DHT22;39042;53.150;5.898;2023-12-20T13:44:46;7.00;99.90
53146;DHT22;39042;53.150;5.898;2023-12-20T13:47:12;6.90;99.90
53146;DHT22;39042;53.150;5.898;2023-12-20T13:49:38;6.90;99.90
53146;DHT22;39042;53.150;5.898;2023-12-20T13:52:04;6.90;99.90
53146;DHT22;39042;53.150;5.898;2023-12-20T13:54:30;6.90;99.90
53146;DHT22;39042;53.150;5.898;2023-12-20T13:56:56;6.90;99.90
53146;DHT22;39042;53.150;5.898;2023-12-20T13:59:23;6.90;99.90
53146;DHT22;39042;53.150;5.898;2023-12-20T14:01:49;6.90;99.90
53146;DHT22;39042;53.150;5.898;2023-12-20T14:04:15;7.00;99.90
53146;DHT22;39042;53.150;5.898;2023-12-20T14:06:41;7.00;99.90
53146;DHT22;39042;53.150;5.898;2023-12-20T14:09:08;7.00;99.90
53146;DHT22;39042;53.150;5.898;2023-12-20T14:11:34;7.00;99.90
53146;DHT22;39042;53.150;5.898;2023-12-20T14:14:00;7.00;99.90
53146;DHT22;39042;53.150;5.898;2023-12-20T14:16:27;7.00;99.90
53146;DHT22;39042;53.150;5.898;2023-12-20T14:18:53;7.00;99.90
53146;DHT22;39042;53.150;5.898;2023-12-20T14:21:22;7.00;99.90
53146;DHT22;39042;53.150;5.898;2023-12-20T14:23:49;7.00;99.90
53146;DHT22;39042;53.150;5.898;2023-12-20T14:26:15;7.00;99.90
53146;DHT22;39042;53.150;5.898;2023-12-20T14:28:42;7.00;99.90
53146;DHT22;39042;53.150;5.898;2023-12-20T14:31:07;7.00;99.90
53146;DHT22;39042;53.150;5.898;2023-12-20T14:33:36;7.00;99.90
53146;DHT22;39042;53.150;5.898;2023-12-20T14:36:07;7.00;99.90
53146;DHT22;39042;53.150;5.898;2023-12-20T14:38:33;7.00;99.90
53146;DHT22;39042;53.150;5.898;2023-12-20T14:40:59;7.00;99.90
53146;DHT22;39042;53.150;5.898;2023-12-20T14:43:26;7.00;99.90
53146;DHT22;39042;53.150;5.898;2023-12-20T14:45:52;7.00;99.90
53146;DHT22;39042;53.150;5.898;2023-12-20T14:48:18;7.10;99.90
53146;DHT22;39042;53.150;5.898;2023-12-20T14:50:44;7.10;99.90
53146;DHT22;39042;53.150;5.898;2023-12-20T14:53:13;7.10;99.90
53146;DHT22;39042;53.150;5.898;2023-12-20T14:55:40;7.10;99.90
53146;DHT22;39042;53.150;5.898;2023-12-20T14:58:06;7.20;99.90
53146;DHT22;39042;53.150;5.898;2023-12-20T15:00:32;7.20;99.90
53146;DHT22;39042;53.150;5.898;2023-12-20T15:02:59;7.30;99.90
53146;DHT22;39042;53.150;5.898;2023-12-20T15:05:25;7.40;99.90
53146;DHT22;39042;53.150;5.898;2023-12-20T15:07:52;7.50;99.90
53146;DHT22;39042;53.150;5.898;2023-12-20T15:10:18;7.60;99.90
53146;DHT22;39042;53.150;5.898;2023-12-20T15:12:44;7.60;99.90
53146;DHT22;39042;53.150;5.898;2023-12-20T15:15:13;7.70;99.90
53146;DHT22;39042;53.150;5.898;2023-12-20T15:17:39;7.70;99.90
53146;DHT22;39042;53.150;5.898;2023-12-20T15:20:05;7.70;99.90
53146;DHT22;39042;53.150;5.898;2023-12-20T15:22:31;7.70;99.90
53146;DHT22;39042;53.150;5.898;2023-12-20T15:24:59;7.80;99.90
53146;DHT22;39042;53.150;5.898;2023-12-20T15:27:27;7.80;99.90
53146;DHT22;39042;53.150;5.898;2023-12-20T15:29:53;7.80;99.90
53146;DHT22;39042;53.150;5.898;2023-12-20T15:32:18;7.80;99.90
53146;DHT22;39042;53.150;5.898;2023-12-20T15:34:45;7.80;99.90
53146;DHT22;39042;53.150;5.898;2023-12-20T15:37:11;7.80;99.90
53146;DHT22;39042;53.150;5.898;2023-12-20T15:39:37;7.80;99.90
53146;DHT22;39042;53.150;5.898;2023-12-20T15:42:03;7.80;99.90
53146;DHT22;39042;53.150;5.898;2023-12-20T15:44:29;7.70;99.90
53146;DHT22;39042;53.150;5.898;2023-12-20T15:46:55;7.80;99.90
53146;DHT22;39042;53.150;5.898;2023-12-20T15:49:21;7.70;99.90
53146;DHT22;39042;53.150;5.898;2023-12-20T15:51:46;7.80;99.90